createdAt,value
2018-10-17T00:02:22.264Z,39.80
2018-10-17T00:04:50.142Z,39.60
2018-10-17T00:07:17.924Z,38.63
2018-10-17T00:09:45.935Z,40.33
2018-10-17T00:12:13.691Z,40.03
2018-10-17T00:14:41.443Z,37.33
2018-10-17T00:17:09.552Z,38.87
2018-10-17T00:19:37.825Z,35.53
2018-10-17T00:22:06.096Z,33.70
2018-10-17T00:24:34.079Z,40.87
2018-10-17T00:27:01.871Z,35.60
2018-10-17T00:29:29.591Z,37.87
2018-10-17T00:31:57.376Z,40.57
2018-10-17T00:34:25.168Z,36.67
2018-10-17T00:36:53.057Z,40.10
2018-10-17T00:39:20.801Z,36.00
2018-10-17T00:41:48.571Z,36.40
2018-10-17T00:44:16.326Z,36.77
2018-10-17T00:46:44.091Z,33.97
2018-10-17T00:49:11.906Z,36.10
2018-10-17T00:51:39.486Z,39.00
2018-10-17T00:54:07.223Z,38.50
2018-10-17T00:56:34.914Z,33.73
2018-10-17T00:59:07.142Z,40.97
2018-10-17T01:01:35.131Z,34.77
2018-10-17T01:04:03.170Z,36.77
2018-10-17T01:06:31.847Z,40.27
2018-10-17T01:08:59.960Z,41.73
2018-10-17T01:11:28.107Z,36.60
2018-10-17T01:13:55.831Z,41.63
2018-10-17T01:16:23.623Z,40.07
2018-10-17T01:18:51.392Z,47.97
2018-10-17T01:21:19.179Z,45.13
2018-10-17T01:23:46.983Z,43.93
2018-10-17T01:26:14.795Z,44.80
2018-10-17T01:28:42.666Z,40.33
2018-10-17T01:31:10.490Z,38.97
2018-10-17T01:33:38.264Z,38.13
2018-10-17T01:36:06.011Z,38.97
2018-10-17T01:38:33.795Z,38.80
2018-10-17T01:41:01.687Z,44.20
2018-10-17T01:43:29.607Z,40.07
2018-10-17T01:45:58.011Z,39.07
2018-10-17T01:48:25.965Z,41.53
2018-10-17T01:50:53.651Z,40.90
2018-10-17T01:53:21.439Z,41.57
2018-10-17T01:55:49.207Z,41.00
2018-10-17T01:58:16.959Z,41.63
2018-10-17T02:00:44.722Z,40.43
2018-10-17T02:03:12.463Z,42.03
2018-10-17T02:05:40.242Z,44.93
2018-10-17T02:08:08.055Z,41.73
2018-10-17T02:10:35.791Z,39.47
2018-10-17T02:13:03.758Z,43.67
2018-10-17T02:15:31.405Z,44.53
2018-10-17T02:17:59.127Z,43.83
2018-10-17T02:20:26.955Z,45.33
2018-10-17T02:22:54.769Z,42.43
2018-10-17T02:25:22.575Z,43.23
2018-10-17T02:27:50.436Z,40.70
2018-10-17T02:30:18.199Z,47.17
2018-10-17T02:32:46.003Z,43.43
2018-10-17T02:35:15.008Z,49.03
2018-10-17T02:37:42.969Z,51.30
2018-10-17T02:40:11.030Z,47.63
2018-10-17T02:42:38.899Z,48.17
2018-10-17T02:45:08.911Z,45.33
2018-10-17T02:47:36.799Z,48.03
2018-10-17T02:50:07.483Z,48.43
2018-10-17T02:52:37.068Z,49.90
2018-10-17T02:55:05.199Z,52.37
2018-10-17T02:57:33.221Z,44.17
2018-10-17T03:00:01.455Z,53.40
2018-10-17T03:02:29.442Z,45.93
2018-10-17T03:04:57.404Z,54.93
2018-10-17T03:07:25.194Z,44.23
2018-10-17T03:09:53.049Z,47.90
2018-10-17T03:12:20.783Z,45.57
2018-10-17T03:14:48.763Z,47.13
2018-10-17T03:17:16.797Z,49.87
2018-10-17T03:19:44.724Z,50.53
2018-10-17T03:22:12.568Z,46.03
2018-10-17T03:24:40.421Z,50.73
2018-10-17T03:27:08.351Z,54.53
2018-10-17T03:29:36.142Z,45.17
2018-10-17T03:32:04.323Z,42.77
2018-10-17T03:34:32.103Z,50.40
2018-10-17T03:36:59.963Z,49.67
2018-10-17T03:39:27.723Z,47.87
2018-10-17T03:41:55.536Z,50.03
2018-10-17T03:44:23.359Z,51.60
2018-10-17T03:46:51.114Z,64.63
2018-10-17T03:49:18.934Z,74.27
2018-10-17T03:51:46.643Z,81.53
2018-10-17T03:54:14.424Z,81.00
2018-10-17T03:56:42.237Z,76.70
2018-10-17T03:59:10.134Z,77.00
2018-10-17T04:01:37.799Z,69.00
2018-10-17T04:04:05.619Z,70.53
2018-10-17T04:06:33.427Z,69.73
2018-10-17T04:09:01.152Z,66.63
2018-10-17T04:11:28.855Z,54.50
2018-10-17T04:13:56.760Z,54.37
2018-10-17T04:16:24.632Z,46.90
2018-10-17T04:18:52.524Z,37.43
2018-10-17T04:21:20.261Z,37.27
2018-10-17T04:23:48.124Z,34.53
2018-10-17T04:26:15.909Z,40.50
2018-10-17T04:28:43.700Z,38.07
2018-10-17T04:31:11.571Z,34.67
2018-10-17T04:33:39.299Z,38.00
2018-10-17T04:36:07.184Z,33.17
2018-10-17T04:38:35.058Z,32.77
2018-10-17T04:41:03.025Z,42.27
2018-10-17T04:43:30.848Z,32.17
2018-10-17T04:45:58.676Z,32.90
2018-10-17T04:48:26.539Z,33.03
2018-10-17T04:50:54.277Z,33.83
2018-10-17T04:53:22.037Z,35.13
2018-10-17T04:55:49.788Z,35.70
2018-10-17T04:58:17.562Z,35.10
2018-10-17T05:00:45.283Z,32.87
2018-10-17T05:03:13.128Z,39.60
2018-10-17T05:05:41.022Z,37.10
2018-10-17T05:08:08.828Z,39.73
2018-10-17T05:10:36.587Z,42.90
2018-10-17T05:13:04.524Z,44.17
2018-10-17T05:15:32.243Z,40.20
2018-10-17T05:18:00.084Z,45.17
2018-10-17T05:20:27.964Z,41.20
2018-10-17T05:22:55.777Z,41.87
2018-10-17T05:25:23.437Z,44.70
2018-10-17T05:27:51.327Z,39.67
2018-10-17T05:30:19.092Z,46.30
2018-10-17T05:32:46.919Z,45.67
2018-10-17T05:35:14.732Z,44.90
2018-10-17T05:37:42.498Z,46.27
2018-10-17T05:40:10.272Z,45.40
2018-10-17T05:42:38.100Z,51.20
2018-10-17T05:45:07.419Z,46.33
2018-10-17T05:47:35.173Z,46.77
2018-10-17T05:50:02.984Z,45.27
2018-10-17T05:52:30.762Z,51.37
2018-10-17T05:54:58.581Z,49.60
2018-10-17T05:57:26.363Z,49.23
2018-10-17T05:59:54.161Z,51.17
2018-10-17T06:02:24.399Z,54.67
2018-10-17T06:04:52.522Z,52.07
2018-10-17T06:07:20.320Z,50.30
2018-10-17T06:09:48.154Z,48.77
2018-10-17T06:12:16.246Z,51.00
2018-10-17T06:14:44.128Z,50.13
2018-10-17T06:17:11.935Z,54.13
2018-10-17T06:19:39.647Z,52.70
2018-10-17T06:22:07.436Z,56.83
2018-10-17T06:24:35.253Z,62.80
2018-10-17T06:27:03.131Z,52.97
2018-10-17T06:29:31.064Z,54.50
2018-10-17T06:31:58.872Z,49.93
2018-10-17T06:34:26.751Z,58.30
2018-10-17T06:36:54.538Z,59.70
2018-10-17T06:39:22.424Z,60.03
2018-10-17T06:41:50.132Z,54.17
2018-10-17T06:44:17.910Z,57.33
2018-10-17T06:46:45.714Z,55.50
2018-10-17T06:49:13.674Z,60.80
2018-10-17T06:51:41.399Z,64.93
2018-10-17T06:56:44.502Z,68.00
2018-10-17T06:59:12.328Z,74.57
2018-10-17T07:01:40.149Z,61.23
2018-10-17T07:04:07.836Z,62.83
2018-10-17T07:06:35.626Z,58.83
2018-10-17T07:09:05.539Z,56.60
2018-10-17T07:11:33.244Z,48.87
2018-10-17T07:14:01.015Z,47.23
2018-10-17T07:16:28.751Z,37.20
2018-10-17T07:18:56.579Z,35.23
2018-10-17T07:21:24.317Z,33.53
2018-10-17T07:23:52.284Z,28.17
2018-10-17T07:26:20.036Z,28.10
2018-10-17T07:28:47.877Z,30.70
2018-10-17T07:31:15.597Z,30.00
2018-10-17T07:33:43.316Z,27.43
2018-10-17T07:36:11.203Z,27.80
2018-10-17T07:38:38.960Z,28.03
2018-10-17T07:41:07.543Z,27.37
2018-10-17T07:43:35.350Z,30.43
2018-10-17T07:46:03.195Z,27.07
2018-10-17T07:48:31.010Z,28.60
2018-10-17T07:50:58.799Z,29.77
2018-10-17T07:53:26.627Z,32.83
2018-10-17T07:55:54.403Z,28.37
2018-10-17T07:58:22.177Z,28.03
2018-10-17T08:00:49.962Z,29.97
2018-10-17T08:03:17.703Z,34.13
2018-10-17T08:05:45.464Z,25.77
2018-10-17T08:08:13.331Z,28.97
2018-10-17T08:10:41.047Z,28.37
2018-10-17T08:13:08.760Z,26.07
2018-10-17T08:15:36.519Z,25.23
2018-10-17T08:18:04.541Z,33.03
2018-10-17T08:20:32.243Z,27.73
2018-10-17T08:23:00.033Z,25.03
2018-10-17T08:25:27.817Z,27.50
2018-10-17T08:27:55.631Z,29.27
2018-10-17T08:30:23.468Z,28.10
2018-10-17T08:32:51.287Z,31.77
2018-10-17T08:35:19.122Z,27.40
2018-10-17T08:37:47.306Z,27.07
2018-10-17T08:40:14.724Z,26.87
2018-10-17T08:42:42.421Z,29.37
2018-10-17T08:45:10.445Z,30.23
2018-10-17T08:47:38.147Z,27.60
2018-10-17T08:50:06.038Z,32.53
2018-10-17T08:52:33.759Z,26.77
2018-10-17T08:55:01.564Z,26.57
2018-10-17T08:57:29.387Z,23.70
2018-10-17T08:59:57.235Z,28.00
2018-10-17T09:02:24.971Z,29.05
2018-10-17T09:04:52.749Z,30.62
2018-10-17T09:07:20.583Z,29.60
2018-10-17T09:09:48.427Z,26.05
2018-10-17T09:12:16.289Z,31.87
2018-10-17T09:14:43.990Z,25.57
2018-10-17T09:17:11.849Z,27.70
2018-10-17T09:19:39.894Z,28.60
2018-10-17T09:22:07.747Z,29.57
2018-10-17T09:24:35.359Z,27.62
2018-10-17T09:27:03.232Z,25.20
2018-10-17T09:29:30.976Z,24.60
2018-10-17T09:31:58.804Z,31.37
2018-10-17T09:34:26.711Z,33.53
2018-10-17T09:36:54.599Z,26.25
2018-10-17T09:39:22.423Z,26.42
2018-10-17T09:41:50.200Z,29.42
2018-10-17T09:44:18.032Z,25.95
2018-10-17T09:46:45.849Z,26.25
2018-10-17T09:49:13.615Z,25.27
2018-10-17T09:51:41.463Z,28.30
2018-10-17T09:54:09.307Z,29.72
2018-10-17T09:56:37.040Z,36.28
2018-10-17T09:59:04.829Z,29.30
2018-10-17T10:01:38.116Z,28.17
2018-10-17T10:04:06.870Z,27.93
2018-10-17T10:06:34.583Z,29.90
2018-10-17T10:09:03.661Z,30.27
2018-10-17T10:11:31.450Z,28.92
2018-10-17T10:13:59.301Z,30.55
2018-10-17T10:16:27.155Z,28.05
2018-10-17T10:18:54.970Z,26.73
2018-10-17T10:21:22.767Z,33.53
2018-10-17T10:23:50.565Z,35.20
2018-10-17T10:26:18.334Z,28.62
2018-10-17T10:28:46.055Z,29.70
2018-10-17T10:31:13.841Z,28.05
2018-10-17T10:33:41.673Z,25.48
2018-10-17T10:36:09.443Z,26.25
2018-10-17T10:38:37.242Z,31.82
2018-10-17T10:41:05.669Z,30.00
2018-10-17T10:43:33.445Z,28.80
2018-10-17T10:46:01.221Z,27.30
2018-10-17T10:48:28.999Z,31.90
2018-10-17T10:50:56.893Z,30.57
2018-10-17T10:53:24.638Z,32.50
2018-10-17T10:55:52.422Z,26.70
2018-10-17T10:58:20.288Z,27.13
2018-10-17T11:00:47.875Z,28.20
2018-10-17T11:03:15.704Z,29.35
2018-10-17T11:05:43.604Z,27.22
2018-10-17T11:08:11.337Z,29.85
2018-10-17T11:10:39.154Z,28.50
2018-10-17T11:13:07.239Z,29.57
2018-10-17T11:15:35.003Z,32.33
2018-10-17T11:18:02.852Z,27.82
2018-10-17T11:20:30.635Z,29.60
2018-10-17T11:22:58.488Z,28.80
2018-10-17T11:25:26.296Z,29.30
2018-10-17T11:27:54.161Z,31.55
2018-10-17T11:30:21.984Z,32.65
2018-10-17T11:32:49.737Z,30.27
2018-10-17T11:35:17.618Z,31.27
2018-10-17T11:37:45.403Z,33.40
2018-10-17T11:40:13.167Z,30.30
2018-10-17T11:42:40.984Z,28.07
2018-10-17T11:45:08.896Z,31.42
2018-10-17T11:47:36.675Z,29.00
2018-10-17T11:50:06.830Z,29.50
2018-10-17T11:52:34.589Z,28.42
2018-10-17T11:55:02.356Z,33.78
2018-10-17T11:57:30.099Z,32.98
2018-10-17T11:59:57.938Z,34.60
2018-10-17T12:02:25.954Z,31.52
2018-10-17T12:04:54.089Z,31.87
2018-10-17T12:07:21.635Z,32.38
2018-10-17T12:09:49.466Z,29.07
2018-10-17T12:12:17.312Z,29.80
2018-10-17T12:14:45.044Z,29.82
2018-10-17T12:17:12.778Z,33.13
2018-10-17T12:19:40.627Z,27.90
2018-10-17T12:22:08.416Z,29.75
2018-10-17T12:24:36.220Z,31.33
2018-10-17T12:27:04.207Z,31.23
2018-10-17T12:29:31.978Z,33.98
2018-10-17T12:31:59.828Z,28.50
2018-10-17T12:34:27.660Z,30.65
2018-10-17T12:36:55.523Z,31.07
2018-10-17T12:39:23.364Z,30.32
2018-10-17T12:41:51.041Z,34.35
2018-10-17T12:44:18.903Z,30.72
2018-10-17T12:46:46.622Z,31.52
2018-10-17T12:49:14.422Z,32.80
2018-10-17T12:51:42.185Z,28.55
2018-10-17T12:54:10.036Z,29.80
2018-10-17T12:56:37.856Z,24.35
2018-10-17T12:59:06.019Z,28.23
2018-10-17T13:01:33.836Z,30.48
2018-10-17T13:04:01.576Z,29.85
2018-10-17T13:06:29.359Z,28.12
2018-10-17T13:08:57.135Z,27.50
2018-10-17T13:11:24.970Z,27.02
2018-10-17T13:13:52.724Z,27.75
2018-10-17T13:16:20.560Z,29.80
2018-10-17T13:18:48.359Z,26.93
2018-10-17T13:21:16.119Z,26.15
2018-10-17T13:23:43.935Z,26.65
2018-10-17T13:26:11.718Z,28.67
2018-10-17T13:28:39.499Z,32.35
2018-10-17T13:31:07.297Z,28.47
2018-10-17T13:33:35.007Z,27.60
2018-10-17T13:36:02.862Z,27.17
2018-10-17T13:38:30.576Z,25.60
2018-10-17T13:40:58.377Z,29.55
2018-10-17T13:43:26.228Z,30.23
2018-10-17T13:45:54.086Z,28.23
2018-10-17T13:48:21.844Z,28.85
2018-10-17T13:50:49.626Z,25.05
2018-10-17T13:53:17.611Z,25.70
2018-10-17T13:55:45.263Z,32.88
2018-10-17T13:58:13.089Z,24.90
2018-10-17T14:00:40.856Z,26.73
2018-10-17T14:03:08.659Z,27.15
2018-10-17T14:05:36.431Z,26.93
2018-10-17T14:08:04.229Z,28.47
2018-10-17T14:10:32.000Z,27.32
2018-10-17T14:12:59.799Z,26.42
2018-10-17T14:15:27.638Z,26.45
2018-10-17T14:17:55.521Z,25.57
2018-10-17T14:20:23.339Z,29.77
2018-10-17T14:22:51.116Z,26.42
2018-10-17T14:25:18.832Z,23.00
2018-10-17T14:27:46.662Z,30.15
2018-10-17T14:30:14.515Z,25.50
2018-10-17T14:32:42.239Z,24.72
2018-10-17T14:35:11.347Z,27.95
2018-10-17T14:37:39.067Z,29.60
2018-10-17T14:40:06.979Z,24.92
2018-10-17T14:42:34.694Z,23.42
2018-10-17T14:45:02.606Z,25.35
2018-10-17T14:47:30.400Z,28.95
2018-10-17T14:49:58.183Z,25.08
2018-10-17T14:52:26.021Z,27.30
2018-10-17T14:54:53.892Z,30.40
2018-10-17T14:57:21.728Z,24.92
2018-10-17T14:59:49.576Z,30.20
2018-10-17T15:02:17.407Z,26.73
2018-10-17T15:04:45.175Z,22.82
2018-10-17T15:07:13.052Z,26.55
2018-10-17T15:09:40.873Z,28.65
2018-10-17T15:12:08.860Z,23.57
2018-10-17T15:14:36.563Z,28.85
2018-10-17T15:17:04.575Z,27.30
2018-10-17T15:19:32.126Z,28.23
2018-10-17T15:21:59.647Z,30.20
2018-10-17T15:24:27.259Z,20.30
2018-10-17T15:26:54.788Z,28.23
2018-10-17T15:29:22.258Z,22.15
2018-10-17T15:31:49.816Z,76.72
2018-10-17T15:34:17.302Z,64.07
2018-10-17T15:36:44.834Z,20.00
2018-10-17T15:39:12.401Z,23.40
2018-10-17T15:41:39.830Z,28.47
2018-10-17T15:44:07.934Z,28.95
2018-10-17T15:46:35.425Z,25.88
2018-10-17T15:49:02.919Z,25.17
2018-10-17T15:51:30.430Z,29.45
2018-10-17T15:53:58.002Z,24.57
2018-10-17T15:56:25.458Z,28.85
2018-10-17T15:58:52.963Z,30.90
2018-10-17T16:01:20.445Z,27.45
2018-10-17T16:03:47.942Z,26.50
2018-10-17T16:06:15.502Z,31.95
2018-10-17T16:08:42.958Z,26.40
2018-10-17T16:11:10.451Z,29.90
2018-10-17T16:13:37.950Z,31.12
2018-10-17T16:16:05.466Z,34.48
2018-10-17T16:18:32.954Z,33.90
2018-10-17T16:21:00.457Z,26.87
2018-10-17T16:23:27.950Z,26.97
2018-10-17T16:25:55.471Z,26.80
2018-10-17T16:28:22.982Z,30.80
2018-10-17T16:30:50.587Z,28.30
2018-10-17T16:33:17.997Z,33.83
2018-10-17T16:35:45.498Z,32.17
2018-10-17T16:38:13.077Z,29.35
2018-10-17T16:40:40.504Z,31.65
2018-10-17T16:43:08.011Z,37.80
2018-10-17T16:45:35.518Z,33.92
2018-10-17T16:48:03.396Z,34.97
2018-10-17T16:50:30.967Z,31.30
2018-10-17T16:52:58.365Z,27.83
2018-10-17T16:55:25.873Z,30.27
2018-10-17T16:57:53.424Z,33.03
2018-10-17T17:00:20.898Z,29.20
2018-10-17T17:02:48.405Z,34.80
2018-10-17T17:05:15.905Z,35.77
2018-10-17T17:07:43.409Z,35.37
2018-10-17T17:10:12.122Z,34.27
2018-10-17T17:12:39.794Z,30.00
2018-10-17T17:15:07.349Z,33.43
2018-10-17T17:17:34.847Z,35.30
2018-10-17T17:20:02.386Z,36.13
2018-10-17T17:22:29.920Z,38.00
2018-10-17T17:24:57.423Z,38.70
2018-10-17T17:27:24.954Z,35.67
2018-10-17T17:29:52.548Z,32.63
2018-10-17T17:32:19.994Z,38.67
2018-10-17T17:34:47.742Z,33.50
2018-10-17T17:37:15.248Z,36.37
2018-10-17T17:39:42.762Z,38.07
2018-10-17T17:42:10.334Z,37.57
2018-10-17T17:44:37.901Z,37.27
2018-10-17T17:47:06.143Z,40.80
2018-10-17T17:49:33.831Z,38.07
2018-10-17T17:52:01.349Z,42.10
2018-10-17T17:54:28.825Z,45.07
2018-10-17T17:56:56.332Z,48.13
2018-10-17T17:59:23.846Z,50.30
2018-10-17T18:01:51.333Z,43.47
2018-10-17T18:04:18.905Z,42.27
2018-10-17T18:06:46.354Z,41.70
2018-10-17T18:09:13.857Z,41.83
2018-10-17T18:11:41.341Z,47.20
2018-10-17T18:14:08.856Z,47.70
2018-10-17T18:16:36.363Z,39.43
2018-10-17T18:19:03.897Z,44.60
2018-10-17T18:21:31.389Z,51.33
2018-10-17T18:23:58.889Z,51.73
2018-10-17T18:26:26.374Z,51.50
2018-10-17T18:28:53.887Z,53.00
2018-10-17T18:31:21.382Z,52.83
2018-10-17T18:33:48.937Z,54.03
2018-10-17T18:36:16.398Z,48.30
2018-10-17T18:38:43.966Z,50.10
2018-10-17T18:41:11.584Z,44.53
2018-10-17T18:43:39.081Z,51.93
2018-10-17T18:46:06.583Z,51.80
2018-10-17T18:48:34.071Z,55.67
2018-10-17T18:51:01.621Z,47.10
2018-10-17T18:53:29.070Z,50.07
2018-10-17T18:55:56.609Z,47.27
2018-10-17T18:58:24.070Z,51.60
2018-10-17T19:00:51.564Z,53.23
2018-10-17T19:03:19.082Z,45.00
2018-10-17T19:05:46.565Z,45.10
2018-10-17T19:08:20.118Z,45.20
2018-10-17T19:10:55.576Z,41.60
2018-10-17T19:13:23.082Z,47.80
2018-10-17T19:15:50.599Z,43.30
2018-10-17T19:18:18.094Z,39.57
2018-10-17T19:20:45.598Z,42.00
2018-10-17T19:23:13.107Z,43.17
2018-10-17T19:25:40.614Z,46.77
2018-10-17T19:28:08.133Z,41.33
2018-10-17T19:30:35.626Z,39.80
2018-10-17T19:33:03.161Z,41.27
2018-10-17T19:35:30.689Z,47.20
2018-10-17T19:37:58.190Z,49.00
2018-10-17T19:40:25.710Z,46.43
2018-10-17T19:42:53.215Z,46.03
2018-10-17T19:45:20.795Z,49.47
2018-10-17T19:47:48.408Z,52.37
2018-10-17T19:50:15.867Z,52.93
2018-10-17T19:52:43.374Z,55.83
2018-10-17T19:55:10.918Z,56.13
2018-10-17T19:57:38.620Z,49.00
2018-10-17T20:00:09.815Z,49.93
2018-10-17T20:02:37.366Z,45.70
2018-10-17T20:05:04.894Z,51.53
2018-10-17T20:07:32.436Z,53.57
2018-10-17T20:09:59.970Z,57.73
2018-10-17T20:12:27.495Z,69.47
2018-10-17T20:15:07.555Z,67.47
2018-10-17T20:17:40.722Z,68.20
2018-10-17T20:20:27.478Z,72.10
2018-10-17T20:22:54.977Z,74.63
2018-10-17T20:25:22.502Z,75.53
2018-10-17T20:27:50.030Z,80.17
2018-10-17T20:30:17.551Z,90.13
2018-10-17T20:36:17.959Z,80.50
2018-10-17T20:38:45.497Z,85.50
2018-10-17T20:41:13.042Z,86.63
2018-10-17T20:43:44.423Z,87.27
2018-10-17T20:46:14.006Z,77.00
2018-10-17T20:48:41.516Z,62.50
2018-10-17T20:51:09.040Z,69.03
2018-10-17T20:53:36.555Z,57.93
2018-10-17T20:56:04.127Z,59.20
2018-10-17T20:58:31.610Z,60.60
2018-10-17T21:01:06.810Z,53.67
2018-10-17T21:03:34.327Z,50.80
2018-10-17T21:06:01.854Z,48.40
2018-10-17T21:08:29.358Z,49.00
2018-10-17T21:10:56.867Z,53.87
2018-10-17T21:13:27.711Z,55.43
2018-10-17T21:15:55.209Z,53.23
2018-10-17T21:18:22.761Z,53.30
2018-10-17T21:20:50.226Z,56.23
2018-10-17T21:23:17.726Z,62.63
2018-10-17T21:25:45.258Z,60.10
2018-10-17T21:28:12.861Z,59.80
2018-10-17T21:30:40.374Z,48.00
2018-10-17T21:33:07.903Z,51.20
2018-10-17T21:35:35.411Z,53.47
2018-10-17T21:38:02.909Z,51.30
2018-10-17T21:40:30.393Z,49.13
2018-10-17T21:42:57.898Z,51.67
2018-10-17T21:45:25.571Z,51.17
2018-10-17T21:47:53.134Z,56.13
2018-10-17T21:50:20.650Z,49.33
2018-10-17T21:53:14.717Z,51.60
2018-10-17T21:55:42.243Z,53.07
2018-10-17T21:58:09.742Z,57.97
2018-10-17T22:00:37.810Z,57.63
2018-10-17T22:03:05.325Z,60.57
2018-10-17T22:05:32.846Z,66.43
2018-10-17T22:08:00.367Z,62.07
2018-10-17T22:10:27.876Z,64.03
2018-10-17T22:12:55.393Z,61.40
2018-10-17T22:15:22.922Z,55.87
2018-10-17T22:17:50.425Z,56.30
2018-10-17T22:20:18.033Z,61.40
2018-10-17T22:22:45.466Z,61.57
2018-10-17T22:25:12.977Z,59.13
2018-10-17T22:27:40.496Z,56.20
2018-10-17T22:30:08.156Z,58.37
2018-10-17T22:32:35.542Z,61.77
2018-10-17T22:35:03.074Z,56.60
2018-10-17T22:37:30.578Z,58.13
2018-10-17T22:39:58.095Z,59.03
2018-10-17T22:42:25.620Z,63.00
2018-10-17T22:44:53.161Z,62.67
2018-10-17T22:47:20.670Z,66.43
2018-10-17T22:49:48.196Z,66.47
2018-10-17T22:52:15.714Z,68.37
2018-10-17T22:54:43.251Z,67.30
2018-10-17T22:57:10.754Z,61.50
2018-10-17T22:59:38.263Z,64.37
2018-10-17T23:02:05.850Z,60.03
2018-10-17T23:04:33.346Z,62.67
2018-10-17T23:07:00.858Z,59.37
2018-10-17T23:09:28.378Z,64.97
2018-10-17T23:11:55.898Z,57.03
2018-10-17T23:14:23.414Z,56.83
2018-10-17T23:16:50.948Z,52.80
2018-10-17T23:19:18.454Z,55.50
2018-10-17T23:21:45.970Z,60.10
2018-10-17T23:24:13.479Z,58.10
2018-10-17T23:26:40.986Z,60.27
2018-10-17T23:29:08.503Z,65.97
2018-10-17T23:31:36.038Z,61.97
2018-10-17T23:34:03.617Z,66.90
2018-10-17T23:36:31.114Z,75.13
2018-10-17T23:38:58.622Z,75.77
2018-10-17T23:41:26.149Z,76.27
2018-10-17T23:43:53.676Z,72.33
2018-10-17T23:46:21.175Z,79.00
2018-10-17T23:48:48.715Z,67.03
2018-10-17T23:51:16.218Z,69.47
2018-10-17T23:53:43.706Z,68.93
2018-10-17T23:56:11.251Z,69.13
2018-10-17T23:58:38.693Z,66.00
